createdAt,value
2023-01-26T00:02:41.432Z,21.65
2023-01-26T00:07:45.454Z,20.17
2023-01-26T00:12:46.968Z,20.60
2023-01-26T00:17:51.376Z,19.70
2023-01-26T00:22:52.769Z,19.33
2023-01-26T00:27:54.293Z,18.88
2023-01-26T00:32:57.494Z,19.73
2023-01-26T00:37:58.827Z,19.40
2023-01-26T00:43:00.679Z,18.13
2023-01-26T00:48:02.320Z,20.02
2023-01-26T00:53:03.901Z,18.30
2023-01-26T00:58:07.612Z,19.35
2023-01-26T01:03:08.942Z,17.38
2023-01-26T01:08:10.348Z,14.63
2023-01-26T01:13:11.770Z,14.88
2023-01-26T01:18:13.138Z,16.17
2023-01-26T01:23:14.438Z,13.73
2023-01-26T01:28:15.808Z,14.73
2023-01-26T01:33:17.625Z,15.63
2023-01-26T01:38:18.995Z,13.57
2023-01-26T01:43:20.620Z,13.70
2023-01-26T01:48:28.286Z,12.68
2023-01-26T01:53:34.506Z,11.93
2023-01-26T01:58:38.781Z,10.10
2023-01-26T02:03:41.924Z,9.00
2023-01-26T02:08:54.180Z,9.57
2023-01-26T02:14:33.523Z,8.88
2023-01-26T02:19:50.124Z,7.85
2023-01-26T02:24:54.948Z,8.05
2023-01-26T02:29:57.796Z,8.00
2023-01-26T02:35:20.723Z,6.95
2023-01-26T02:40:22.175Z,7.88
2023-01-26T02:45:25.069Z,7.57
2023-01-26T02:50:26.737Z,7.10
2023-01-26T02:55:30.763Z,5.93
2023-01-26T03:00:37.150Z,5.72
2023-01-26T03:05:38.657Z,5.55
2023-01-26T03:10:40.149Z,5.68
2023-01-26T03:15:52.461Z,6.28
2023-01-26T03:21:12.802Z,7.25
2023-01-26T03:26:32.651Z,6.72
2023-01-26T03:31:34.275Z,6.68
2023-01-26T03:36:37.348Z,5.50
2023-01-26T03:41:57.424Z,5.70
2023-01-26T03:47:17.918Z,7.35
2023-01-26T03:52:37.803Z,5.00
2023-01-26T03:57:39.197Z,4.80
2023-01-26T04:03:00.586Z,4.47
2023-01-26T04:08:22.401Z,4.55
2023-01-26T04:13:43.264Z,4.10
2023-01-26T04:19:03.097Z,4.25
2023-01-26T04:24:17.323Z,3.60
2023-01-26T04:29:18.821Z,2.83
2023-01-26T04:34:20.347Z,3.97
2023-01-26T04:39:21.678Z,3.65
2023-01-26T04:44:23.182Z,3.70
2023-01-26T04:49:24.576Z,4.35
2023-01-26T04:54:26.160Z,4.93
2023-01-26T04:59:28.030Z,4.50
2023-01-26T05:04:29.513Z,4.78
2023-01-26T05:09:31.042Z,5.03
2023-01-26T05:14:32.629Z,4.97
2023-01-26T05:19:34.017Z,4.50
2023-01-26T05:24:35.454Z,5.03
2023-01-26T05:29:36.857Z,5.15
2023-01-26T05:34:38.643Z,5.15
2023-01-26T05:39:40.087Z,5.20
2023-01-26T05:44:41.504Z,5.50
2023-01-26T05:49:43.585Z,4.40
2023-01-26T05:54:45.424Z,5.25
2023-01-26T05:59:47.354Z,4.40
2023-01-26T06:04:49.274Z,4.47
2023-01-26T06:09:51.032Z,4.60
2023-01-26T06:14:52.455Z,5.80
2023-01-26T06:19:54.085Z,6.90
2023-01-26T06:24:55.597Z,7.28
2023-01-26T06:29:57.051Z,7.18
2023-01-26T06:34:58.442Z,8.02
2023-01-26T06:39:59.783Z,8.32
2023-01-26T06:45:01.377Z,7.00
2023-01-26T06:50:02.858Z,6.88
2023-01-26T06:55:05.612Z,7.30
2023-01-26T07:00:07.838Z,6.38
2023-01-26T07:05:11.116Z,6.07
2023-01-26T07:10:13.582Z,5.88
2023-01-26T07:15:15.073Z,6.25
2023-01-26T07:20:16.630Z,5.78
2023-01-26T07:25:19.288Z,5.38
2023-01-26T07:30:20.750Z,5.82
2023-01-26T07:35:22.144Z,4.63
2023-01-26T07:40:23.577Z,5.07
2023-01-26T07:45:25.101Z,4.65
2023-01-26T07:50:26.907Z,5.30
2023-01-26T07:55:28.793Z,9.65
2023-01-26T08:00:30.264Z,7.00
2023-01-26T08:05:32.816Z,6.57
2023-01-26T08:10:34.333Z,6.97
2023-01-26T08:15:35.790Z,7.10
2023-01-26T08:20:37.144Z,6.63
2023-01-26T08:25:38.532Z,6.55
2023-01-26T08:30:40.168Z,6.75
2023-01-26T08:35:41.761Z,8.52
2023-01-26T08:40:43.185Z,7.68
2023-01-26T08:45:47.426Z,11.60
2023-01-26T08:50:48.884Z,7.73
2023-01-26T08:55:50.539Z,8.32
2023-01-26T09:00:52.163Z,7.28
2023-01-26T09:05:53.732Z,6.68
2023-01-26T09:10:55.354Z,7.53
2023-01-26T09:15:57.165Z,7.05
2023-01-26T09:21:06.730Z,7.03
2023-01-26T09:26:08.734Z,7.72
2023-01-26T09:31:11.873Z,8.15
2023-01-26T09:36:13.412Z,7.38
2023-01-26T09:41:21.313Z,7.30
2023-01-26T09:46:42.587Z,7.82
2023-01-26T09:51:53.400Z,7.22
2023-01-26T09:56:55.860Z,7.40
2023-01-26T10:02:01.819Z,7.88
2023-01-26T10:07:09.540Z,7.25
2023-01-26T10:12:22.862Z,7.45
2023-01-26T10:17:27.375Z,6.38
2023-01-26T10:22:36.043Z,6.18
2023-01-26T10:27:37.589Z,7.78
2023-01-26T10:32:41.471Z,7.20
2023-01-26T10:37:42.819Z,7.68
2023-01-26T10:42:56.057Z,6.72
2023-01-26T10:48:17.817Z,6.75
2023-01-26T10:53:30.494Z,6.75
2023-01-26T10:58:43.660Z,7.95
2023-01-26T11:04:05.957Z,6.65
2023-01-26T11:09:19.135Z,7.55
2023-01-26T11:14:20.889Z,7.70
2023-01-26T11:19:51.171Z,8.05
2023-01-26T11:24:58.329Z,6.93
2023-01-26T11:30:36.734Z,7.18
2023-01-26T11:35:57.232Z,7.47
2023-01-26T11:41:18.425Z,6.90
2023-01-26T11:46:46.298Z,6.72
2023-01-26T11:52:21.757Z,7.25
2023-01-26T11:57:41.232Z,7.45
2023-01-26T12:02:54.184Z,6.88
2023-01-26T12:08:14.439Z,7.82
2023-01-26T12:13:34.804Z,8.20
2023-01-26T12:18:55.765Z,9.73
2023-01-26T12:24:03.159Z,8.65
2023-01-26T12:29:28.031Z,8.83
2023-01-26T12:34:33.722Z,8.43
2023-01-26T12:39:44.784Z,10.05
2023-01-26T12:45:02.233Z,8.57
2023-01-26T12:50:22.976Z,7.47
2023-01-26T12:55:47.198Z,8.65
2023-01-26T13:00:58.342Z,7.95
2023-01-26T13:06:20.150Z,8.75
2023-01-26T13:11:41.814Z,8.95
2023-01-26T13:16:43.682Z,9.00
2023-01-26T13:21:45.276Z,8.50
2023-01-26T13:26:48.741Z,9.05
2023-01-26T13:31:57.489Z,9.07
2023-01-26T13:37:09.123Z,9.25
2023-01-26T13:42:23.109Z,10.27
2023-01-26T13:47:30.073Z,8.25
2023-01-26T13:52:31.558Z,8.93
2023-01-26T13:57:32.988Z,9.43
2023-01-26T14:02:36.364Z,8.18
2023-01-26T14:07:43.650Z,9.95
2023-01-26T14:12:56.598Z,8.38
2023-01-26T14:18:01.308Z,8.77
2023-01-26T14:23:13.764Z,8.48
2023-01-26T14:28:20.637Z,8.65
2023-01-26T14:33:24.397Z,8.30
2023-01-26T14:38:28.850Z,8.45
2023-01-26T14:43:30.383Z,9.60
2023-01-26T14:48:38.012Z,8.27
2023-01-26T14:53:39.450Z,9.02
2023-01-26T14:58:41.424Z,10.27
2023-01-26T15:03:42.874Z,11.38
2023-01-26T15:09:05.909Z,11.23
2023-01-26T15:14:23.904Z,12.18
2023-01-26T15:19:27.437Z,12.23
2023-01-26T15:24:28.874Z,11.02
2023-01-26T15:29:32.495Z,10.90
2023-01-26T15:34:38.359Z,10.25
2023-01-26T15:39:39.852Z,9.55
2023-01-26T15:44:41.740Z,10.00
2023-01-26T15:49:43.391Z,10.02
2023-01-26T15:54:45.406Z,10.02
2023-01-26T15:59:46.829Z,9.05
2023-01-26T16:04:48.464Z,10.35
2023-01-26T16:09:50.971Z,11.13
2023-01-26T16:14:52.703Z,9.73
2023-01-26T16:19:54.212Z,11.15
2023-01-26T16:24:55.582Z,10.57
2023-01-26T16:29:57.309Z,10.27
2023-01-26T16:34:58.836Z,11.45
2023-01-26T16:40:00.347Z,11.15
2023-01-26T16:45:01.724Z,10.88
2023-01-26T16:50:03.353Z,11.77
2023-01-26T16:55:05.203Z,11.55
2023-01-26T17:00:07.766Z,11.38
2023-01-26T17:05:17.937Z,11.55
2023-01-26T17:10:22.492Z,11.63
2023-01-26T17:15:28.166Z,12.48
2023-01-26T17:20:29.649Z,10.93
2023-01-26T17:25:31.022Z,11.52
2023-01-26T17:30:32.619Z,14.20
2023-01-26T17:35:34.313Z,12.73
2023-01-26T17:40:36.647Z,12.10
2023-01-26T17:45:38.113Z,13.50
2023-01-26T17:50:39.452Z,12.55
2023-01-26T17:55:41.304Z,12.50
2023-01-26T18:00:43.066Z,12.95
2023-01-26T18:05:54.577Z,12.90
2023-01-26T18:11:00.516Z,13.57
2023-01-26T18:16:02.235Z,13.35
2023-01-26T18:21:18.014Z,12.52
2023-01-26T18:26:21.720Z,14.40
2023-01-26T18:31:26.217Z,13.10
2023-01-26T18:36:28.462Z,11.38
2023-01-26T18:41:30.713Z,15.35
2023-01-26T18:46:32.507Z,14.75
2023-01-26T18:51:36.071Z,16.25
2023-01-26T18:56:37.535Z,15.32
2023-01-26T19:01:39.422Z,14.52
2023-01-26T19:06:40.751Z,14.00
2023-01-26T19:11:42.158Z,12.35
2023-01-26T19:16:47.498Z,13.82
2023-01-26T19:21:49.387Z,14.05
2023-01-26T19:26:50.801Z,13.48
2023-01-26T19:31:52.652Z,14.00
2023-01-26T19:36:54.169Z,13.27
2023-01-26T19:41:55.657Z,15.85
2023-01-26T19:46:57.081Z,13.68
2023-01-26T19:51:58.596Z,12.95
2023-01-26T19:56:59.877Z,13.32
2023-01-26T20:02:01.380Z,12.90
2023-01-26T20:07:05.139Z,13.73
2023-01-26T20:12:09.031Z,12.88
2023-01-26T20:17:10.333Z,13.05
2023-01-26T20:22:12.252Z,12.13
2023-01-26T20:27:13.590Z,13.65
2023-01-26T20:32:15.102Z,12.20
2023-01-26T20:37:16.514Z,12.75
2023-01-26T20:42:18.976Z,13.85
2023-01-26T20:47:22.552Z,11.52
2023-01-26T20:52:25.137Z,11.88
2023-01-26T20:57:26.525Z,12.20
2023-01-26T21:02:28.204Z,12.77
2023-01-26T21:07:29.603Z,10.70
2023-01-26T21:12:30.991Z,11.63
2023-01-26T21:17:32.556Z,10.95
2023-01-26T21:22:33.923Z,10.43
2023-01-26T21:27:35.324Z,11.32
2023-01-26T21:32:36.640Z,9.98
2023-01-26T21:37:38.104Z,10.48
2023-01-26T21:42:39.652Z,11.43
2023-01-26T21:47:40.983Z,12.57
2023-01-26T21:52:57.591Z,11.77
2023-01-26T21:58:17.429Z,11.75
2023-01-26T22:03:18.790Z,11.35
2023-01-26T22:08:20.133Z,11.68
2023-01-26T22:13:22.075Z,15.63
2023-01-26T22:18:23.444Z,11.65
2023-01-26T22:23:24.949Z,11.98
2023-01-26T22:28:26.369Z,10.57
2023-01-26T22:33:28.306Z,12.27
2023-01-26T22:38:31.295Z,10.60
2023-01-26T22:43:33.816Z,11.80
2023-01-26T22:48:36.198Z,11.13
2023-01-26T22:53:39.552Z,10.45
2023-01-26T22:58:55.797Z,10.65
2023-01-26T23:04:00.261Z,10.70
2023-01-26T23:09:04.507Z,9.88
2023-01-26T23:14:06.194Z,8.67
2023-01-26T23:19:07.729Z,10.75
2023-01-26T23:24:09.134Z,11.65
2023-01-26T23:29:10.703Z,9.90
2023-01-26T23:34:12.013Z,11.43
2023-01-26T23:39:13.389Z,10.48
2023-01-26T23:44:14.750Z,11.02
2023-01-26T23:49:16.311Z,9.75
2023-01-26T23:54:17.763Z,10.50
2023-01-26T23:59:19.309Z,10.20
